Time;durP1;ratioP1;P1;durP2;ratioP2;P2;SDS_P1;SDS_P2;PMS_P1;PMS_P2;Temp;Humidity;BMP_temperature;BMP_pressure;BME280_temperature;BME280_humidity;BME280_pressure;Samples;Min_cycle;Max_cycle;Signal;HPM_P1;HPM_P2
2023/05/25 00:01:53;;;;;;;5.00;2.93;;;;;;;10.32;71.23;99101.16;5046998;27;103837;-65
2023/05/25 00:04:25;;;;;;;8.90;3.60;;;;;;;10.23;71.20;99104.41;5045756;27;104288;-64
2023/05/25 00:06:54;;;;;;;9.93;3.43;;;;;;;10.26;70.78;99097.13;5045013;27;103032;-65
2023/05/25 00:09:22;;;;;;;8.77;3.80;;;;;;;10.38;70.40;99100.78;5043592;27;102996;-64
2023/05/25 00:11:51;;;;;;;5.73;3.40;;;;;;;10.38;69.98;99100.78;5004779;27;104315;-63
2023/05/25 00:14:19;;;;;;;9.87;3.90;;;;;;;10.47;69.23;99105.44;5043418;27;103184;-65
2023/05/25 00:16:48;;;;;;;7.37;3.37;;;;;;;10.44;68.72;99100.38;5050701;27;102628;-65
2023/05/25 00:19:17;;;;;;;6.27;3.33;;;;;;;10.40;68.51;99096.22;5047034;27;102660;-64
2023/05/25 00:21:48;;;;;;;9.73;3.57;;;;;;;10.68;68.43;99093.47;5042971;27;103337;-64
2023/05/25 00:24:16;;;;;;;8.47;3.17;;;;;;;10.69;67.64;99094.31;5045885;27;103167;-64
2023/05/25 00:26:44;;;;;;;7.47;3.17;;;;;;;10.57;67.51;99088.06;5050251;27;102764;-65
2023/05/25 00:29:13;;;;;;;;;;;;;;;10.85;66.61;99095.84;5045510;27;102658;-65
2023/05/25 00:31:41;;;;;;;;;;;;;;;10.77;66.99;99098.16;5033171;27;103838;-65
2023/05/25 00:34:09;;;;;;;;;;;;;;;10.78;67.10;99094.53;5050227;27;103640;-65
2023/05/25 00:36:37;;;;;;;;;;;;;;;10.82;67.20;99096.03;5032507;27;103134;-65
2023/05/25 00:39:06;;;;;;;;;;;;;;;11.02;66.77;99086.75;5044938;27;102957;-65
2023/05/25 00:41:34;;;;;;;;;;;;;;;11.01;66.59;99085.91;5052973;27;103241;-65
2023/05/25 00:44:02;;;;;;;7.37;3.43;;;;;;;10.91;66.70;99089.28;5037215;27;103313;-65
2023/05/25 00:46:33;;;;;;;6.63;3.63;;;;;;;11.44;65.08;99093.53;5044872;27;102666;-65
2023/05/25 00:49:02;;;;;;;7.22;3.83;;;;;;;11.76;63.94;99089.50;5040016;27;102799;-65
2023/05/25 00:51:31;;;;;;;8.63;3.42;;;;;;;11.50;65.20;99088.69;5042482;27;103283;-64
2023/05/25 00:53:59;;;;;;;8.55;3.67;;;;;;;11.67;65.23;99086.66;5044955;27;104327;-64
2023/05/25 00:56:32;;;;;;;6.45;3.50;;;;;;;11.47;65.11;99083.59;5034502;27;102657;-64
2023/05/25 00:59:05;;;;;;;8.23;3.80;;;;;;;11.47;65.30;99077.47;5024644;27;103099;-64
2023/05/25 01:01:38;;;;;;;7.45;4.00;;;;;;;11.36;66.01;99069.44;5047162;27;103303;-64
2023/05/25 01:04:08;;;;;;;8.52;3.83;;;;;;;11.18;66.79;99078.63;5033062;27;102671;-64
2023/05/25 01:06:39;;;;;;;7.40;3.90;;;;;;;11.16;67.28;99077.88;5040664;27;102581;-64
2023/05/25 01:09:13;;;;;;;6.97;4.00;;;;;;;11.18;66.82;99078.63;5029720;27;102765;-64
2023/05/25 01:11:48;;;;;;;8.63;3.80;;;;;;;11.04;67.33;99080.41;5039119;27;103323;-63
2023/05/25 01:14:19;;;;;;;8.43;3.83;;;;;;;11.19;66.36;99070.59;5027213;27;103152;-63
2023/05/25 01:16:48;;;;;;;6.82;3.55;;;;;;;11.17;65.50;99064.53;5041225;27;102735;-63
2023/05/25 01:19:17;;;;;;;8.50;3.88;;;;;;;11.23;65.89;99068.59;5036975;27;102605;-63
2023/05/25 01:21:55;;;;;;;8.57;3.85;;;;;;;11.14;66.54;99069.22;5023530;27;103265;-63
2023/05/25 01:24:31;;;;;;;10.00;4.40;;;;;;;11.07;66.80;99068.78;5043887;27;103353;-63
2023/05/25 01:27:07;;;;;;;8.17;3.80;;;;;;;11.11;66.11;99070.28;5043505;27;102893;-63
2023/05/25 01:29:39;;;;;;;9.00;3.80;;;;;;;11.17;66.02;99075.13;5027093;27;103919;-64
2023/05/25 01:32:08;;;;;;;6.63;3.60;;;;;;;11.29;65.15;99076.06;5029045;27;103360;-65
2023/05/25 01:34:37;;;;;;;6.60;3.72;;;;;;;10.93;67.04;99069.72;5023988;27;103930;-63
2023/05/25 01:37:07;;;;;;;7.80;3.80;;;;;;;10.97;66.87;99073.88;5022954;27;103896;-63
2023/05/25 01:39:36;;;;;;;8.73;3.95;;;;;;;11.22;65.96;99069.53;5025215;27;103649;-63
2023/05/25 01:42:04;;;;;;;9.45;4.22;;;;;;;10.93;66.88;99067.09;5047214;27;103092;-63
2023/05/25 01:44:33;;;;;;;9.52;3.63;;;;;;;11.06;66.52;99073.22;5046753;27;103270;-64
2023/05/25 01:47:05;;;;;;;7.15;3.33;;;;;;;11.28;65.54;99071.75;5046107;27;102966;-63
2023/05/25 01:49:44;;;;;;;5.95;3.45;;;;;;;11.34;65.35;99081.91;5039180;27;103228;-63
2023/05/25 01:52:20;;;;;;;8.90;3.92;;;;;;;11.16;65.75;99083.19;5038542;27;104427;-63
2023/05/25 01:54:54;;;;;;;9.05;4.10;;;;;;;11.19;65.42;99077.69;5039609;27;103082;-63
2023/05/25 01:57:26;;;;;;;9.00;4.03;;;;;;;11.10;65.66;99079.16;5019845;27;103079;-64
2023/05/25 01:59:58;;;;;;;7.43;3.92;;;;;;;11.06;65.51;99083.78;5037938;27;102657;-63
2023/05/25 02:02:28;;;;;;;8.23;4.07;;;;;;;10.88;66.26;99073.63;5016325;27;103276;-63
2023/05/25 02:04:57;;;;;;;8.82;4.13;;;;;;;10.64;67.30;99077.94;5011080;27;104507;-63
2023/05/25 02:07:26;;;;;;;10.30;3.90;;;;;;;10.99;66.13;99087.81;5039524;27;102931;-63
2023/05/25 02:09:55;;;;;;;8.65;4.00;;;;;;;11.06;66.07;99083.78;5027531;27;103814;-64
2023/05/25 02:12:23;;;;;;;6.80;4.18;;;;;;;10.87;66.73;99072.78;5039167;27;103517;-63
2023/05/25 02:14:51;;;;;;;9.63;4.20;;;;;;;11.03;66.39;99078.72;5020258;27;103094;-63
2023/05/25 02:17:19;;;;;;;7.72;4.10;;;;;;;10.87;67.15;99077.22;5011034;27;102674;-64
2023/05/25 02:19:51;;;;;;;8.33;4.00;;;;;;;11.22;65.91;99067.75;5024484;27;102873;-63
2023/05/25 02:22:20;;;;;;;8.88;4.10;;;;;;;11.33;65.08;99064.34;5046051;27;103386;-63
2023/05/25 02:24:50;;;;;;;8.83;4.27;;;;;;;11.25;65.65;99051.66;5044805;27;110425;-63
2023/05/25 02:27:20;;;;;;;6.05;3.60;;;;;;;11.28;65.63;99048.81;5041565;27;103198;-64
2023/05/25 02:29:48;;;;;;;4.50;3.33;;;;;;;11.76;64.24;99051.63;5037585;27;102913;-63
2023/05/25 02:32:17;;;;;;;8.95;3.83;;;;;;;11.88;62.63;99048.94;5042038;27;103418;-64
2023/05/25 02:34:45;;;;;;;7.97;3.80;;;;;;;11.97;63.31;99048.28;5021444;27;103288;-64
2023/05/25 02:37:13;;;;;;;6.15;3.60;;;;;;;12.30;62.39;99046.75;5045726;27;103926;-63
2023/05/25 02:39:41;;;;;;;10.30;4.50;;;;;;;11.87;63.87;99044.59;5018920;27;102782;-63
2023/05/25 02:42:11;;;;;;;4.50;2.80;;;;;;;12.23;62.91;99050.81;5027232;27;103453;-64
2023/05/25 02:44:39;;;;;;;4.68;2.78;;;;;;;12.46;61.97;99049.97;5020373;27;108100;-64
2023/05/25 02:47:07;;;;;;;4.40;3.03;;;;;;;12.49;62.54;99047.91;5037166;27;103003;-63
2023/05/25 02:49:37;;;;;;;5.05;3.28;;;;;;;12.48;63.53;99048.03;5040224;27;103002;-64
2023/05/25 02:52:08;;;;;;;8.48;4.25;;;;;;;12.32;65.12;99050.16;5042222;27;103410;-64
2023/05/25 02:54:36;;;;;;;5.60;3.47;;;;;;;12.40;63.84;99051.28;5042164;27;109925;-64
2023/05/25 02:57:07;;;;;;;7.28;4.22;;;;;;;11.37;67.48;99063.16;5020433;27;102733;-64
2023/05/25 02:59:36;;;;;;;7.32;3.88;;;;;;;11.85;66.90;99062.38;5018905;27;102931;-63
2023/05/25 03:02:05;;;;;;;5.38;2.97;;;;;;;12.20;65.81;99073.94;5028400;27;103451;-63
2023/05/25 03:04:36;;;;;;;7.35;4.30;;;;;;;11.09;69.34;99072.16;5016550;27;103356;-64
2023/05/25 03:07:05;;;;;;;7.78;4.35;;;;;;;11.47;67.13;99062.44;5023448;27;102682;-63
2023/05/25 03:09:33;;;;;;;7.63;3.88;;;;;;;11.65;66.69;99062.91;5039261;27;102759;-63
2023/05/25 03:12:03;;;;;;;7.60;4.17;;;;;;;11.72;64.94;99066.88;5043339;27;104424;-64
2023/05/25 03:14:32;;;;;;;7.93;4.27;;;;;;;11.13;67.00;99078.09;5045212;27;103403;-64
2023/05/25 03:17:05;;;;;;;9.50;4.43;;;;;;;11.12;66.44;99082.53;5037467;27;102705;-63
2023/05/25 03:19:33;;;;;;;5.53;3.20;;;;;;;11.79;64.87;99084.00;5046322;27;102655;-64
2023/05/25 03:22:03;;;;;;;4.47;3.00;;;;;;;12.05;63.08;99080.34;5024508;27;103389;-64
2023/05/25 03:24:32;;;;;;;4.83;3.10;;;;;;;12.15;62.78;99080.53;5037051;27;104543;-63
2023/05/25 03:31:20;;;;;;;9.07;4.43;;;;;;;11.65;65.42;99082.28;5039523;27;103147;-63
2023/05/25 03:33:50;;;;;;;9.43;4.70;;;;;;;11.68;65.63;99078.59;5025330;27;104439;-63
2023/05/25 03:36:21;;;;;;;7.75;4.25;;;;;;;11.49;64.72;99086.13;5042931;27;103297;-64
2023/05/25 03:38:50;;;;;;;8.45;4.50;;;;;;;10.93;67.21;99080.31;5021083;27;102758;-64
2023/05/25 03:41:18;;;;;;;6.00;3.78;;;;;;;11.66;64.91;99077.84;5029001;27;104173;-63
2023/05/25 03:43:46;;;;;;;7.57;4.43;;;;;;;11.39;66.66;99079.78;5023262;27;111811;-64
2023/05/25 03:46:14;;;;;;;5.38;3.75;;;;;;;11.60;65.96;99083.56;5042522;27;103059;-64
2023/05/25 03:48:43;;;;;;;7.78;3.90;;;;;;;12.09;63.79;99081.81;5024061;27;102755;-63
2023/05/25 03:51:13;;;;;;;6.10;3.53;;;;;;;12.25;63.32;99081.53;5023007;27;102854;-63
2023/05/25 03:53:40;;;;;;;4.80;3.10;;;;;;;12.32;62.80;99088.09;5043097;27;107374;-63
2023/05/25 03:56:08;;;;;;;4.22;2.92;;;;;;;12.36;62.80;99083.38;5044323;27;104622;-63
2023/05/25 03:58:37;;;;;;;3.40;2.85;;;;;;;12.47;62.12;99094.91;5046735;27;102807;-63
2023/05/25 04:01:05;;;;;;;6.78;3.13;;;;;;;12.54;61.59;99092.66;5007877;27;102776;-63
2023/05/25 04:03:33;;;;;;;4.18;3.05;;;;;;;12.36;62.24;99096.63;5027292;27;103435;-63
2023/05/25 04:06:01;;;;;;;5.00;3.03;;;;;;;12.33;62.67;99103.00;5022126;27;104430;-63
2023/05/25 04:08:34;;;;;;;7.30;4.20;;;;;;;12.23;63.25;99101.16;5045887;27;103326;-63
2023/05/25 04:11:02;;;;;;;6.95;4.15;;;;;;;11.85;65.79;99104.75;5045291;27;103147;-63
2023/05/25 04:13:34;;;;;;;3.90;2.80;;;;;;;12.17;64.27;99105.94;5036836;27;103296;-65
2023/05/25 04:16:03;;;;;;;5.57;3.88;;;;;;;12.11;65.33;99101.09;5044941;27;103330;-64
2023/05/25 04:18:32;;;;;;;5.10;3.13;;;;;;;12.33;64.19;99104.81;5032631;27;102840;-65
2023/05/25 04:21:00;;;;;;;5.80;3.63;;;;;;;12.24;64.75;99106.31;5041622;27;102957;-63
2023/05/25 04:23:32;;;;;;;8.55;4.53;;;;;;;11.84;66.12;99118.09;5024360;27;103975;-64
2023/05/25 04:26:04;;;;;;;4.90;3.47;;;;;;;11.27;68.59;99118.53;5049816;27;103093;-64
2023/05/25 04:28:32;;;;;;;7.97;3.70;;;;;;;11.15;69.23;99118.50;5032169;27;102617;-64
2023/05/25 04:31:25;;;;;;;6.77;3.93;;;;;;;11.11;69.57;99117.88;5042116;27;102804;-64
2023/05/25 04:34:14;;;;;;;5.67;3.20;;;;;;;11.04;70.22;99111.28;5049381;27;106300;-65
2023/05/25 04:36:50;;;;;;;7.73;3.40;;;;;;;10.89;71.35;99107.88;5033133;27;103148;-65
2023/05/25 04:39:19;;;;;;;5.20;3.03;;;;;;;11.10;70.75;99115.31;5027447;27;102812;-65
2023/05/25 04:41:56;;;;;;;6.73;4.03;;;;;;;11.05;70.93;99127.06;5050007;27;102876;-65
2023/05/25 04:44:24;;;;;;;4.70;3.03;;;;;;;11.08;70.52;99128.66;5034323;27;103137;-65
2023/05/25 04:46:54;;;;;;;6.97;3.30;;;;;;;11.31;70.20;99119.16;5046745;27;103201;-66
2023/05/25 04:49:30;;;;;;;9.53;4.03;;;;;;;11.03;69.93;99126.31;5023319;27;102777;-65
2023/05/25 04:51:58;;;;;;;6.70;3.53;;;;;;;11.02;70.64;99124.63;5036719;27;102771;-65
2023/05/25 04:54:28;;;;;;;7.00;3.80;;;;;;;10.80;70.24;99132.31;5025065;27;111953;-64
2023/05/25 04:57:02;;;;;;;7.23;4.17;;;;;;;10.90;70.24;99125.44;5043598;27;103744;-65
2023/05/25 04:59:31;;;;;;;6.30;4.13;;;;;;;11.00;70.88;99126.50;5031182;27;103127;-65
2023/05/25 05:02:00;;;;;;;8.80;4.77;;;;;;;11.24;69.75;99128.44;5029603;27;103027;-63
2023/05/25 05:04:28;;;;;;;10.03;4.50;;;;;;;11.22;70.04;99125.06;5031327;27;103290;-63
2023/05/25 05:06:56;;;;;;;15.40;4.63;;;;;;;10.99;71.21;99124.84;5044466;27;103106;-64
2023/05/25 05:09:29;;;;;;;7.90;4.47;;;;;;;10.85;70.89;99127.56;5030376;27;102673;-63
2023/05/25 05:12:01;;;;;;;10.17;4.30;;;;;;;10.91;70.93;99127.16;5037770;27;102601;-63
2023/05/25 05:14:35;;;;;;;7.33;3.30;;;;;;;11.40;69.11;99131.72;5038321;27;108891;-64
2023/05/25 05:17:03;;;;;;;10.13;3.97;;;;;;;11.24;69.64;99139.88;5021159;27;103104;-64
2023/05/25 05:19:31;;;;;;;6.13;3.53;;;;;;;11.42;69.02;99143.94;5041391;27;102754;-63
2023/05/25 05:22:00;;;;;;;12.83;4.63;;;;;;;11.35;69.63;99153.22;5029468;27;103750;-63
2023/05/25 05:24:28;;;;;;;7.13;4.00;;;;;;;11.53;68.89;99153.78;5048084;27;103271;-63
2023/05/25 05:26:56;;;;;;;10.87;4.27;;;;;;;11.58;68.40;99154.28;5024682;27;105779;-63
2023/05/25 05:29:37;;;;;;;10.70;4.30;;;;;;;11.61;68.12;99154.09;5041299;27;104003;-63
2023/05/25 05:32:06;;;;;;;9.10;4.70;;;;;;;11.48;68.60;99163.84;5006053;27;103150;-63
2023/05/25 05:34:35;;;;;;;8.47;4.43;;;;;;;11.51;68.18;99158.31;5037719;27;103552;-64
2023/05/25 05:37:07;;;;;;;8.03;4.00;;;;;;;11.79;68.06;99160.75;5042171;27;103105;-64
2023/05/25 05:39:36;;;;;;;8.97;4.30;;;;;;;11.65;67.82;99156.41;5022931;27;102646;-64
2023/05/25 05:42:05;;;;;;;10.03;4.60;;;;;;;12.11;67.37;99161.16;5044186;27;102674;-65
2023/05/25 05:44:35;;;;;;;9.77;3.73;;;;;;;12.06;67.60;99166.78;5041166;27;103182;-64
2023/05/25 05:47:07;;;;;;;12.53;5.20;;;;;;;11.95;67.18;99158.75;5048412;27;103674;-64
2023/05/25 05:49:37;;;;;;;6.63;3.70;;;;;;;12.53;66.80;99167.81;5024301;27;102843;-65
2023/05/25 05:52:05;;;;;;;7.90;3.83;;;;;;;12.47;66.44;99170.91;5027892;27;102922;-63
2023/05/25 05:54:34;;;;;;;10.33;4.40;;;;;;;12.00;67.69;99166.34;5028128;27;103059;-63
2023/05/25 05:57:07;;;;;;;11.57;4.27;;;;;;;12.35;67.28;99167.31;5025242;27;103098;-63
2023/05/25 05:59:36;;;;;;;7.73;4.40;;;;;;;12.38;67.03;99175.06;5045798;27;102746;-63
2023/05/25 06:02:05;;;;;;;13.77;4.87;;;;;;;12.53;66.23;99186.34;5042094;27;102705;-63
2023/05/25 06:04:36;;;;;;;16.73;4.93;;;;;;;12.58;66.33;99184.22;5028955;27;103264;-63
2023/05/25 06:07:05;;;;;;;11.73;4.63;;;;;;;12.43;66.77;99194.16;5039171;27;106576;-63
2023/05/25 06:09:33;;;;;;;12.40;4.50;;;;;;;12.80;65.60;99189.63;5029956;27;103060;-65
2023/05/25 06:12:02;;;;;;;12.50;4.70;;;;;;;12.45;66.58;99199.31;5041425;27;102799;-63
2023/05/25 06:14:30;;;;;;;12.33;5.27;;;;;;;13.02;65.97;99189.75;5047415;27;103225;-63
2023/05/25 06:17:01;;;;;;;8.93;4.83;;;;;;;12.64;65.74;99199.69;5028808;27;109328;-64
2023/05/25 06:19:30;;;;;;;6.67;4.13;;;;;;;12.65;66.68;99196.06;5042116;27;102652;-64
2023/05/25 06:21:59;;;;;;;10.10;5.33;;;;;;;13.06;65.70;99196.50;5039556;27;102722;-64
2023/05/25 06:24:27;;;;;;;12.87;5.40;;;;;;;12.70;67.00;99196.56;5046671;27;103351;-64
2023/05/25 06:26:55;;;;;;;8.77;4.83;;;;;;;12.82;66.15;99186.88;5031123;27;103194;-64
2023/05/25 06:29:23;;;;;;;8.13;4.80;;;;;;;12.80;66.12;99184.31;5042733;27;104674;-64
2023/05/25 06:31:51;;;;;;;10.47;4.23;;;;;;;13.34;65.34;99184.69;5043330;27;102827;-64
2023/05/25 06:34:20;;;;;;;10.57;4.87;;;;;;;13.49;64.90;99193.31;5022017;27;103880;-64
2023/05/25 06:36:48;;;;;;;13.63;5.23;;;;;;;13.33;66.07;99188.34;5045551;27;103071;-64
2023/05/25 06:39:17;;;;;;;11.77;5.10;;;;;;;13.53;65.63;99184.16;5039512;27;102747;-64
2023/05/25 06:41:45;;;;;;;10.77;5.00;;;;;;;13.09;65.26;99198.13;5030661;27;103153;-64
2023/05/25 06:44:25;;;;;;;9.63;4.37;;;;;;;13.14;66.07;99193.31;5041538;27;103848;-64
2023/05/25 06:46:53;;;;;;;11.17;4.80;;;;;;;13.42;65.80;99186.78;5025096;27;103212;-64
2023/05/25 06:49:21;;;;;;;9.33;5.47;;;;;;;13.38;64.48;99190.63;5040066;27;102929;-64
2023/05/25 06:51:49;;;;;;;11.50;5.17;;;;;;;13.84;65.11;99192.28;5044577;27;102953;-64
2023/05/25 06:54:19;;;;;;;11.80;5.17;;;;;;;14.09;64.15;99199.16;5044212;27;103272;-64
2023/05/25 06:56:48;;;;;;;12.80;4.83;;;;;;;13.95;65.41;99199.41;5045518;27;103958;-64
2023/05/25 06:59:17;;;;;;;12.53;5.33;;;;;;;13.77;65.03;99203.50;5043197;27;102698;-64
2023/05/25 07:01:46;;;;;;;9.47;4.47;;;;;;;14.33;64.43;99205.25;5041053;27;102695;-64
2023/05/25 07:04:14;;;;;;;13.13;5.10;;;;;;;14.29;64.77;99206.41;5051592;27;104547;-64
2023/05/25 07:06:42;;;;;;;14.00;5.33;;;;;;;14.04;63.99;99206.66;5048950;27;103325;-64
2023/05/25 07:09:10;;;;;;;7.70;4.30;;;;;;;14.92;63.99;99205.72;5054172;27;102800;-64
2023/05/25 07:11:39;;;;;;;12.20;5.47;;;;;;;14.05;63.78;99208.34;5054735;27;102665;-64
2023/05/25 07:14:07;;;;;;;9.27;5.00;;;;;;;14.52;64.14;99208.13;5043549;27;103232;-65
2023/05/25 07:16:35;;;;;;;10.70;5.23;;;;;;;14.54;63.42;99205.31;5032505;27;105389;-64
2023/05/25 07:19:04;;;;;;;12.23;5.60;;;;;;;14.45;64.58;99201.63;5047708;27;104260;-64
2023/05/25 07:21:33;;;;;;;11.87;5.50;;;;;;;14.05;64.81;99203.03;5030489;27;103169;-64
2023/05/25 07:24:01;;;;;;;12.57;6.03;;;;;;;14.10;64.36;99208.00;5038910;27;103295;-64
2023/05/25 07:26:30;;;;;;;14.27;5.63;;;;;;;14.19;64.24;99209.94;5044716;27;103141;-64
2023/05/25 07:29:00;;;;;;;13.20;5.73;;;;;;;14.46;64.73;99213.91;5046833;27;102636;-64
2023/05/25 07:31:30;;;;;;;9.73;5.10;;;;;;;15.18;64.46;99211.56;5051330;27;102837;-64
2023/05/25 07:33:58;;;;;;;8.77;4.60;;;;;;;14.80;63.45;99211.19;5042111;27;103208;-64
2023/05/25 07:36:26;;;;;;;13.33;5.37;;;;;;;14.64;65.00;99214.25;5046701;27;103124;-64
2023/05/25 07:38:54;;;;;;;10.23;5.87;;;;;;;14.40;63.94;99214.41;5026935;27;102660;-63
2023/05/25 07:41:22;;;;;;;12.47;5.77;;;;;;;14.88;63.17;99219.38;5046998;27;102602;-64
2023/05/25 07:43:52;;;;;;;8.33;5.00;;;;;;;14.99;63.23;99208.72;5047145;27;103571;-64
2023/05/25 07:46:23;;;;;;;11.83;5.30;;;;;;;15.45;63.26;99213.72;5044921;27;103548;-64
2023/05/25 07:48:53;;;;;;;8.63;4.23;;;;;;;15.65;62.65;99216.44;5026765;27;102857;-64
2023/05/25 07:51:22;;;;;;;15.57;5.70;;;;;;;15.57;61.71;99220.72;5026685;27;102746;-64
2023/05/25 07:53:51;;;;;;;13.47;6.03;;;;;;;15.14;62.88;99219.91;5008416;27;104504;-64
2023/05/25 07:56:19;;;;;;;10.90;6.00;;;;;;;15.61;62.54;99214.16;5029230;27;103261;-64
2023/05/25 07:58:49;;;;;;;11.80;6.13;;;;;;;15.59;61.40;99222.28;5030476;27;102734;-64
2023/05/25 08:01:17;;;;;;;8.90;5.40;;;;;;;15.95;61.43;99212.97;5028119;27;102672;-64
2023/05/25 08:03:49;;;;;;;8.40;4.80;;;;;;;16.81;59.06;99212.47;5030411;27;105455;-65
2023/05/25 08:06:17;;;;;;;13.93;5.10;;;;;;;17.37;58.01;99210.81;5019322;27;103089;-64
2023/05/25 08:08:45;;;;;;;7.80;4.53;;;;;;;16.94;59.19;99212.19;5030014;27;103283;-64
2023/05/25 08:11:15;;;;;;;7.23;4.90;;;;;;;17.89;58.87;99200.66;5029331;27;102692;-64
2023/05/25 08:13:43;;;;;;;8.50;5.47;;;;;;;18.07;55.71;99198.91;5010763;27;103391;-64
2023/05/25 08:16:11;;;;;;;10.07;5.73;;;;;;;16.88;56.13;99204.75;5031943;27;104818;-64
2023/05/25 08:18:42;;;;;;;9.53;5.70;;;;;;;18.87;53.32;99193.75;5029116;27;102593;-64
2023/05/25 08:21:12;;;;;;;9.80;5.93;;;;;;;17.76;54.81;99206.31;5004657;27;102726;-65
2023/05/25 08:23:41;;;;;;;11.65;6.13;;;;;;;17.86;53.42;99201.78;5009262;27;106185;-65
2023/05/25 08:26:11;;;;;;;10.98;6.47;;;;;;;17.18;56.18;99205.47;5028109;27;103870;-65
2023/05/25 08:28:42;;;;;;;9.60;5.72;;;;;;;17.09;57.49;99209.00;5024926;27;102730;-65
2023/05/25 08:31:10;;;;;;;9.65;5.80;;;;;;;17.76;55.78;99208.13;5012996;27;102818;-64
2023/05/25 08:33:39;;;;;;;10.87;6.07;;;;;;;18.07;56.02;99214.97;5028934;27;103341;-64
2023/05/25 08:36:08;;;;;;;10.77;6.65;;;;;;;18.42;54.34;99214.25;5012249;27;103138;-64
2023/05/25 08:38:37;;;;;;;11.53;6.80;;;;;;;18.35;54.09;99213.16;5015370;27;102958;-65
2023/05/25 08:41:07;;;;;;;13.98;7.07;;;;;;;18.02;55.10;99219.06;5005569;27;102646;-65
2023/05/25 08:43:35;;;;;;;11.73;6.57;;;;;;;18.86;53.20;99218.81;5028974;27;103197;-65
2023/05/25 08:46:05;;;;;;;8.93;5.53;;;;;;;19.85;52.68;99217.75;4993942;27;103210;-65
2023/05/25 08:48:35;;;;;;;12.38;6.20;;;;;;;20.54;50.38;99215.00;5026120;27;103033;-65
2023/05/25 08:51:10;;;;;;;11.27;7.13;;;;;;;19.28;52.12;99215.56;5021403;27;103022;-66
2023/05/25 08:53:41;;;;;;;8.27;5.57;;;;;;;20.38;53.07;99216.78;5025942;27;103264;-65
2023/05/25 08:56:13;;;;;;;8.85;6.43;;;;;;;19.47;53.74;99215.44;5025865;27;103118;-65
2023/05/25 08:58:46;;;;;;;10.82;6.97;;;;;;;18.95;53.66;99212.56;5031186;27;102953;-65
2023/05/25 09:01:17;;;;;;;10.30;6.53;;;;;;;19.21;54.18;99209.97;5027031;27;102964;-65
2023/05/25 09:03:48;;;;;;;8.83;6.50;;;;;;;19.04;53.17;99206.31;5024983;27;103188;-65
2023/05/25 09:06:17;;;;;;;11.35;6.78;;;;;;;19.63;51.59;99210.22;5008173;27;103888;-65
2023/05/25 09:08:47;;;;;;;10.60;6.73;;;;;;;19.25;52.34;99210.53;5023461;27;102995;-65
2023/05/25 09:11:15;;;;;;;11.82;6.25;;;;;;;20.40;51.51;99198.66;4994199;27;102938;-65
2023/05/25 09:13:58;;;;;;;10.77;5.97;;;;;;;21.47;48.74;99186.19;5005077;27;107891;-66
2023/05/25 09:16:26;;;;;;;11.25;6.75;;;;;;;18.83;53.85;99203.09;5030496;27;103676;-65
2023/05/25 09:18:54;;;;;;;13.70;6.10;;;;;;;20.67;51.49;99195.72;5003265;27;102780;-66
2023/05/25 09:21:22;;;;;;;11.85;5.82;;;;;;;19.76;52.40;99207.13;5021691;27;102791;-65
2023/05/25 09:23:51;;;;;;;11.65;5.05;;;;;;;20.28;50.10;99199.94;5026813;27;103667;-65
2023/05/25 09:26:22;;;;;;;7.97;5.35;;;;;;;20.24;52.52;99200.25;5029001;27;103121;-66
2023/05/25 09:28:50;;;;;;;10.88;5.57;;;;;;;20.34;51.63;99201.97;5024535;27;102914;-66
2023/05/25 09:31:18;;;;;;;11.23;5.93;;;;;;;19.89;51.61;99208.41;5024050;27;102822;-66
2023/05/25 09:33:46;;;;;;;9.63;5.53;;;;;;;20.07;51.36;99203.00;5023789;27;103291;-65
2023/05/25 09:40:40;;;;;;;13.60;6.47;;;;;;;20.64;51.27;99209.47;5016759;27;102792;-65
2023/05/25 09:43:08;;;;;;;10.93;5.22;;;;;;;21.87;48.14;99207.69;5027726;27;104684;-65
2023/05/25 09:45:37;;;;;;;10.73;6.32;;;;;;;20.07;52.01;99219.91;5007060;27;109812;-65
2023/05/25 09:48:06;;;;;;;10.93;6.68;;;;;;;20.26;52.04;99216.19;5024075;27;103013;-66
2023/05/25 09:50:36;;;;;;;8.75;5.80;;;;;;;21.14;50.62;99207.63;5024464;27;102672;-66
2023/05/25 09:53:04;;;;;;;7.72;5.57;;;;;;;20.94;50.99;99208.91;5024256;27;102519;-67
2023/05/25 09:55:32;;;;;;;5.57;4.63;;;;;;;21.61;49.22;99202.47;5022504;27;103317;-66
2023/05/25 09:58:22;;;;;;;9.40;5.32;;;;;;;22.84;46.13;99204.72;5022348;27;103220;-66
2023/05/25 10:00:53;;;;;;;7.40;5.00;;;;;;;23.28;47.55;99200.38;5028459;27;102667;-66
2023/05/25 10:03:21;;;;;;;6.30;4.70;;;;;;;24.29;46.49;99203.56;5019719;27;102870;-66
2023/05/25 10:05:50;;;;;;;10.13;5.13;;;;;;;25.06;44.27;99190.44;5008277;27;105913;-66
2023/05/25 10:08:20;;;;;;;9.15;5.00;;;;;;;24.59;42.74;99204.41;5029850;27;102861;-66
2023/05/25 10:10:50;;;;;;;10.30;6.13;;;;;;;22.12;47.20;99203.13;5031884;27;103047;-66
2023/05/25 10:13:22;;;;;;;7.97;4.95;;;;;;;23.01;47.29;99195.53;5000373;27;103163;-66
2023/05/25 10:15:54;;;;;;;8.57;5.80;;;;;;;24.22;43.32;99205.34;5029111;27;109426;-66
2023/05/25 10:18:25;;;;;;;10.27;5.30;;;;;;;24.77;43.38;99192.16;4992394;27;105589;-66
2023/05/25 10:21:00;;;;;;;8.80;5.55;;;;;;;23.45;43.47;99204.69;5026886;27;103083;-66
2023/05/25 10:23:35;;;;;;;7.97;4.97;;;;;;;24.50;43.76;99195.56;5028332;27;103373;-67
2023/05/25 10:26:06;;;;;;;7.43;5.28;;;;;;;25.09;42.04;99190.06;5022043;27;103267;-67
2023/05/25 10:28:39;;;;;;;8.65;5.25;;;;;;;24.71;43.45;99186.66;5028384;27;103115;-67
2023/05/25 10:31:09;;;;;;;9.80;5.03;;;;;;;24.62;43.20;99188.63;5009331;27;102667;-67
2023/05/25 10:33:37;;;;;;;8.45;4.97;;;;;;;23.50;45.89;99191.47;4996379;27;103128;-68
2023/05/25 10:36:09;;;;;;;6.88;4.95;;;;;;;21.89;47.66;99203.00;5000682;27;106419;-68
2023/05/25 10:38:39;;;;;;;10.75;5.63;;;;;;;20.95;49.08;99194.47;5029016;27;103164;-68
2023/05/25 10:41:09;;;;;;;7.68;5.35;;;;;;;22.10;48.56;99192.50;5033295;27;102554;-67
2023/05/25 10:43:39;;;;;;;8.25;4.75;;;;;;;23.97;45.98;99190.41;5034890;27;102725;-66
2023/05/25 10:46:08;;;;;;;7.20;4.72;;;;;;;22.05;49.28;99192.19;4995355;27;104779;-67
2023/05/25 10:48:37;;;;;;;7.75;5.40;;;;;;;21.13;49.32;99194.38;5006026;27;103136;-67
2023/05/25 10:51:06;;;;;;;9.02;4.88;;;;;;;21.92;48.26;99186.50;5031667;27;102834;-67
2023/05/25 10:53:38;;;;;;;7.03;4.63;;;;;;;22.22;47.67;99187.59;5009508;27;102851;-66
2023/05/25 10:56:09;;;;;;;8.65;5.13;;;;;;;21.54;51.22;99188.00;5010554;27;103809;-66
2023/05/25 10:58:41;;;;;;;9.27;5.53;;;;;;;20.50;50.38;99197.53;5014856;27;105359;-67
2023/05/25 11:01:12;;;;;;;8.15;5.18;;;;;;;21.31;49.00;99201.28;5022198;27;102847;-66
2023/05/25 11:03:57;;;;;;;8.52;4.82;;;;;;;21.89;47.99;99192.22;5017559;27;102773;-67
2023/05/25 11:06:59;;;;;;;7.90;5.47;;;;;;;22.34;48.94;99203.19;5008201;27;105310;-66
2023/05/25 11:09:29;;;;;;;7.85;5.22;;;;;;;22.43;47.27;99191.38;5005166;27;104514;-66
2023/05/25 11:12:05;;;;;;;8.80;5.03;;;;;;;21.73;49.08;99192.19;5029131;27;102568;-67
2023/05/25 11:14:37;;;;;;;7.45;4.82;;;;;;;22.02;48.31;99187.16;5023653;27;102990;-66
2023/05/25 11:17:09;;;;;;;7.97;4.72;;;;;;;22.70;48.13;99186.59;5011543;27;103263;-66
2023/05/25 11:19:46;;;;;;;7.68;4.78;;;;;;;22.20;48.62;99186.94;5027795;27;103155;-66
2023/05/25 11:22:19;;;;;;;7.28;4.57;;;;;;;23.35;46.25;99177.09;5034882;27;103821;-67
2023/05/25 11:24:47;;;;;;;8.70;4.53;;;;;;;23.92;44.22;99179.28;5009970;27;103091;-67
2023/05/25 11:27:15;;;;;;;11.85;5.60;;;;;;;22.61;46.23;99182.22;5016755;27;106346;-67
2023/05/25 11:29:50;;;;;;;6.20;4.88;;;;;;;22.83;46.17;99182.31;5023348;27;103278;-67
2023/05/25 11:32:18;;;;;;;6.85;4.75;;;;;;;22.13;47.54;99189.47;5029033;27;102969;-67
2023/05/25 11:34:49;;;;;;;9.77;5.38;;;;;;;22.20;47.36;99178.88;5030578;27;102717;-67
2023/05/25 11:37:19;;;;;;;8.65;4.70;;;;;;;22.27;46.37;99180.69;5008838;27;105818;-67
2023/05/25 11:39:50;;;;;;;8.27;5.35;;;;;;;21.51;47.90;99184.81;5029915;27;103693;-67
2023/05/25 11:42:20;;;;;;;7.10;4.45;;;;;;;23.52;45.55;99177.84;5007427;27;102787;-67
2023/05/25 11:44:50;;;;;;;8.55;5.32;;;;;;;22.12;46.63;99176.22;5025697;27;103029;-67
2023/05/25 11:47:23;;;;;;;8.15;5.13;;;;;;;21.83;46.75;99165.97;5025444;27;103611;-67